sensor_id;sensor_type;location;lat;lon;timestamp;P1;durP1;ratioP1;P2;durP2;ratioP2
58152;SDS011;43967;51.634;5.566;2023-04-22T00:01:17;8.57;;;3.25;;
58152;SDS011;43967;51.634;5.566;2023-04-22T00:06:39;6.97;;;2.70;;
58152;SDS011;43967;51.634;5.566;2023-04-22T00:12:00;8.00;;;2.55;;
58152;SDS011;43967;51.634;5.566;2023-04-22T00:17:21;9.75;;;3.40;;
58152;SDS011;43967;51.634;5.566;2023-04-22T00:22:43;8.20;;;3.00;;
58152;SDS011;43967;51.634;5.566;2023-04-22T00:28:04;6.95;;;2.53;;
58152;SDS011;43967;51.634;5.566;2023-04-22T00:33:26;7.03;;;2.88;;
58152;SDS011;43967;51.634;5.566;2023-04-22T00:38:48;8.73;;;3.13;;
58152;SDS011;43967;51.634;5.566;2023-04-22T00:44:09;8.40;;;3.17;;
58152;SDS011;43967;51.634;5.566;2023-04-22T00:49:31;7.75;;;2.97;;
58152;SDS011;43967;51.634;5.566;2023-04-22T00:54:55;7.88;;;3.13;;
58152;SDS011;43967;51.634;5.566;2023-04-22T01:00:16;9.50;;;2.60;;
58152;SDS011;43967;51.634;5.566;2023-04-22T01:05:39;7.50;;;2.80;;
58152;SDS011;43967;51.634;5.566;2023-04-22T01:11:01;7.07;;;2.78;;
58152;SDS011;43967;51.634;5.566;2023-04-22T01:16:22;6.63;;;2.83;;
58152;SDS011;43967;51.634;5.566;2023-04-22T01:21:44;9.75;;;2.80;;
58152;SDS011;43967;51.634;5.566;2023-04-22T01:27:08;9.23;;;2.88;;
58152;SDS011;43967;51.634;5.566;2023-04-22T01:32:29;7.97;;;2.40;;
58152;SDS011;43967;51.634;5.566;2023-04-22T01:37:50;7.43;;;2.83;;
58152;SDS011;43967;51.634;5.566;2023-04-22T01:43:11;6.38;;;2.35;;
58152;SDS011;43967;51.634;5.566;2023-04-22T01:48:33;8.45;;;2.60;;
58152;SDS011;43967;51.634;5.566;2023-04-22T01:53:55;7.37;;;2.53;;
58152;SDS011;43967;51.634;5.566;2023-04-22T01:59:16;6.70;;;2.65;;
58152;SDS011;43967;51.634;5.566;2023-04-22T02:04:38;7.45;;;2.60;;
58152;SDS011;43967;51.634;5.566;2023-04-22T02:09:59;6.80;;;2.37;;
58152;SDS011;43967;51.634;5.566;2023-04-22T02:15:20;7.40;;;2.40;;
58152;SDS011;43967;51.634;5.566;2023-04-22T02:20:42;6.95;;;3.17;;
58152;SDS011;43967;51.634;5.566;2023-04-22T02:26:04;7.27;;;2.03;;
58152;SDS011;43967;51.634;5.566;2023-04-22T02:31:25;7.17;;;2.47;;
58152;SDS011;43967;51.634;5.566;2023-04-22T02:36:46;6.68;;;2.40;;
58152;SDS011;43967;51.634;5.566;2023-04-22T02:42:08;6.63;;;2.42;;
58152;SDS011;43967;51.634;5.566;2023-04-22T02:47:29;6.53;;;2.30;;
58152;SDS011;43967;51.634;5.566;2023-04-22T02:52:50;7.20;;;2.88;;
58152;SDS011;43967;51.634;5.566;2023-04-22T02:58:11;7.00;;;2.47;;
58152;SDS011;43967;51.634;5.566;2023-04-22T03:03:33;6.17;;;2.50;;
58152;SDS011;43967;51.634;5.566;2023-04-22T03:08:54;7.68;;;2.67;;
58152;SDS011;43967;51.634;5.566;2023-04-22T03:14:15;5.97;;;2.50;;
58152;SDS011;43967;51.634;5.566;2023-04-22T03:19:36;7.83;;;2.27;;
58152;SDS011;43967;51.634;5.566;2023-04-22T03:24:58;5.73;;;1.97;;
58152;SDS011;43967;51.634;5.566;2023-04-22T03:30:19;6.20;;;2.28;;
58152;SDS011;43967;51.634;5.566;2023-04-22T03:35:40;6.15;;;2.30;;
58152;SDS011;43967;51.634;5.566;2023-04-22T03:41:01;6.00;;;2.00;;
58152;SDS011;43967;51.634;5.566;2023-04-22T03:46:23;6.85;;;2.40;;
58152;SDS011;43967;51.634;5.566;2023-04-22T03:51:44;6.15;;;2.05;;
58152;SDS011;43967;51.634;5.566;2023-04-22T03:57:05;6.80;;;1.90;;
58152;SDS011;43967;51.634;5.566;2023-04-22T04:02:27;5.78;;;1.95;;
58152;SDS011;43967;51.634;5.566;2023-04-22T04:07:48;5.70;;;1.88;;
58152;SDS011;43967;51.634;5.566;2023-04-22T04:13:09;7.43;;;2.43;;
58152;SDS011;43967;51.634;5.566;2023-04-22T04:18:30;7.80;;;1.77;;
58152;SDS011;43967;51.634;5.566;2023-04-22T04:23:52;6.03;;;2.10;;
58152;SDS011;43967;51.634;5.566;2023-04-22T04:29:13;6.18;;;2.05;;
58152;SDS011;43967;51.634;5.566;2023-04-22T04:34:34;6.03;;;1.83;;
58152;SDS011;43967;51.634;5.566;2023-04-22T04:39:56;5.88;;;2.03;;
58152;SDS011;43967;51.634;5.566;2023-04-22T04:45:17;6.32;;;2.00;;
58152;SDS011;43967;51.634;5.566;2023-04-22T04:50:41;6.23;;;1.80;;
58152;SDS011;43967;51.634;5.566;2023-04-22T04:56:03;5.30;;;1.60;;
58152;SDS011;43967;51.634;5.566;2023-04-22T05:01:24;5.72;;;2.25;;
58152;SDS011;43967;51.634;5.566;2023-04-22T05:06:45;5.60;;;1.93;;
58152;SDS011;43967;51.634;5.566;2023-04-22T05:12:07;5.80;;;2.20;;
58152;SDS011;43967;51.634;5.566;2023-04-22T05:17:28;6.20;;;2.28;;
58152;SDS011;43967;51.634;5.566;2023-04-22T05:22:49;5.60;;;1.60;;
58152;SDS011;43967;51.634;5.566;2023-04-22T05:28:11;7.30;;;2.20;;
58152;SDS011;43967;51.634;5.566;2023-04-22T05:33:32;5.70;;;2.17;;
58152;SDS011;43967;51.634;5.566;2023-04-22T05:38:53;6.15;;;1.95;;
58152;SDS011;43967;51.634;5.566;2023-04-22T05:44:14;6.40;;;2.03;;
58152;SDS011;43967;51.634;5.566;2023-04-22T05:49:36;5.60;;;1.88;;
58152;SDS011;43967;51.634;5.566;2023-04-22T05:54:57;6.43;;;2.13;;
58152;SDS011;43967;51.634;5.566;2023-04-22T06:00:18;6.57;;;2.33;;
58152;SDS011;43967;51.634;5.566;2023-04-22T06:05:39;5.33;;;1.90;;
58152;SDS011;43967;51.634;5.566;2023-04-22T06:11:01;6.40;;;2.10;;
58152;SDS011;43967;51.634;5.566;2023-04-22T06:16:22;5.72;;;2.28;;
58152;SDS011;43967;51.634;5.566;2023-04-22T06:21:43;5.53;;;1.83;;
58152;SDS011;43967;51.634;5.566;2023-04-22T06:27:04;6.70;;;2.17;;
58152;SDS011;43967;51.634;5.566;2023-04-22T06:32:26;5.80;;;2.10;;
58152;SDS011;43967;51.634;5.566;2023-04-22T06:37:47;6.60;;;2.10;;
58152;SDS011;43967;51.634;5.566;2023-04-22T06:43:08;6.05;;;1.88;;
58152;SDS011;43967;51.634;5.566;2023-04-22T06:48:29;5.32;;;1.67;;
58152;SDS011;43967;51.634;5.566;2023-04-22T06:53:51;5.77;;;2.10;;
58152;SDS011;43967;51.634;5.566;2023-04-22T06:59:12;6.17;;;2.43;;
58152;SDS011;43967;51.634;5.566;2023-04-22T07:04:33;6.88;;;2.15;;
58152;SDS011;43967;51.634;5.566;2023-04-22T07:09:54;5.82;;;2.17;;
58152;SDS011;43967;51.634;5.566;2023-04-22T07:15:16;6.03;;;2.10;;
58152;SDS011;43967;51.634;5.566;2023-04-22T07:20:37;6.00;;;2.35;;
58152;SDS011;43967;51.634;5.566;2023-04-22T07:25:58;6.60;;;2.15;;
58152;SDS011;43967;51.634;5.566;2023-04-22T07:31:19;6.83;;;2.27;;
58152;SDS011;43967;51.634;5.566;2023-04-22T07:36:41;5.55;;;1.90;;
58152;SDS011;43967;51.634;5.566;2023-04-22T07:42:02;5.85;;;1.88;;
58152;SDS011;43967;51.634;5.566;2023-04-22T07:47:23;5.80;;;2.17;;
58152;SDS011;43967;51.634;5.566;2023-04-22T07:52:45;6.43;;;2.50;;
58152;SDS011;43967;51.634;5.566;2023-04-22T07:58:06;6.05;;;2.15;;
58152;SDS011;43967;51.634;5.566;2023-04-22T08:03:27;6.03;;;2.25;;
58152;SDS011;43967;51.634;5.566;2023-04-22T08:08:48;5.50;;;1.80;;
58152;SDS011;43967;51.634;5.566;2023-04-22T08:14:10;6.75;;;1.95;;
58152;SDS011;43967;51.634;5.566;2023-04-22T08:19:31;6.53;;;2.05;;
58152;SDS011;43967;51.634;5.566;2023-04-22T08:24:52;5.97;;;2.03;;
58152;SDS011;43967;51.634;5.566;2023-04-22T08:30:13;6.63;;;2.00;;
58152;SDS011;43967;51.634;5.566;2023-04-22T08:35:35;6.05;;;1.88;;
58152;SDS011;43967;51.634;5.566;2023-04-22T08:40:56;5.80;;;2.10;;
58152;SDS011;43967;51.634;5.566;2023-04-22T08:46:18;5.77;;;1.83;;
58152;SDS011;43967;51.634;5.566;2023-04-22T08:51:41;6.10;;;2.25;;
58152;SDS011;43967;51.634;5.566;2023-04-22T08:57:03;5.40;;;1.80;;
58152;SDS011;43967;51.634;5.566;2023-04-22T09:02:25;5.53;;;1.83;;
58152;SDS011;43967;51.634;5.566;2023-04-22T09:07:47;5.97;;;2.53;;
58152;SDS011;43967;51.634;5.566;2023-04-22T09:13:08;5.63;;;1.80;;
58152;SDS011;43967;51.634;5.566;2023-04-22T09:18:30;5.97;;;1.93;;
58152;SDS011;43967;51.634;5.566;2023-04-22T09:23:59;7.28;;;2.30;;
58152;SDS011;43967;51.634;5.566;2023-04-22T09:29:21;5.22;;;1.80;;
58152;SDS011;43967;51.634;5.566;2023-04-22T09:34:49;5.83;;;2.13;;
58152;SDS011;43967;51.634;5.566;2023-04-22T09:40:14;5.80;;;2.17;;
58152;SDS011;43967;51.634;5.566;2023-04-22T09:45:41;5.65;;;1.95;;
58152;SDS011;43967;51.634;5.566;2023-04-22T09:51:04;5.57;;;2.13;;
58152;SDS011;43967;51.634;5.566;2023-04-22T09:56:44;5.43;;;1.70;;
58152;SDS011;43967;51.634;5.566;2023-04-22T10:02:07;5.88;;;1.98;;
58152;SDS011;43967;51.634;5.566;2023-04-22T10:07:28;5.50;;;1.80;;
58152;SDS011;43967;51.634;5.566;2023-04-22T10:12:50;6.13;;;2.10;;
58152;SDS011;43967;51.634;5.566;2023-04-22T10:18:12;5.68;;;2.03;;
58152;SDS011;43967;51.634;5.566;2023-04-22T10:23:37;6.65;;;2.33;;
58152;SDS011;43967;51.634;5.566;2023-04-22T10:29:05;6.03;;;2.03;;
58152;SDS011;43967;51.634;5.566;2023-04-22T10:34:27;5.70;;;2.23;;
58152;SDS011;43967;51.634;5.566;2023-04-22T10:40:09;5.70;;;2.17;;
58152;SDS011;43967;51.634;5.566;2023-04-22T10:45:31;5.80;;;1.90;;
58152;SDS011;43967;51.634;5.566;2023-04-22T10:50:52;5.80;;;1.90;;
58152;SDS011;43967;51.634;5.566;2023-04-22T10:56:17;5.55;;;2.10;;
58152;SDS011;43967;51.634;5.566;2023-04-22T11:01:40;5.85;;;2.17;;
58152;SDS011;43967;51.634;5.566;2023-04-22T11:17:59;6.05;;;2.00;;
58152;SDS011;43967;51.634;5.566;2023-04-22T11:23:24;5.80;;;1.90;;
58152;SDS011;43967;51.634;5.566;2023-04-22T11:28:46;6.10;;;2.63;;
58152;SDS011;43967;51.634;5.566;2023-04-22T11:34:08;6.20;;;2.40;;
58152;SDS011;43967;51.634;5.566;2023-04-22T11:39:36;5.93;;;2.38;;
58152;SDS011;43967;51.634;5.566;2023-04-22T11:44:57;5.63;;;2.13;;
58152;SDS011;43967;51.634;5.566;2023-04-22T11:50:27;5.30;;;1.75;;
58152;SDS011;43967;51.634;5.566;2023-04-22T11:55:50;6.07;;;2.05;;
58152;SDS011;43967;51.634;5.566;2023-04-22T12:01:11;5.90;;;2.30;;
58152;SDS011;43967;51.634;5.566;2023-04-22T12:06:33;6.20;;;2.38;;
58152;SDS011;43967;51.634;5.566;2023-04-22T12:11:54;5.80;;;2.35;;
58152;SDS011;43967;51.634;5.566;2023-04-22T12:17:20;6.57;;;2.80;;
58152;SDS011;43967;51.634;5.566;2023-04-22T12:22:45;5.93;;;2.20;;
58152;SDS011;43967;51.634;5.566;2023-04-22T12:28:06;6.03;;;2.50;;
58152;SDS011;43967;51.634;5.566;2023-04-22T12:33:27;5.90;;;2.42;;
58152;SDS011;43967;51.634;5.566;2023-04-22T12:38:48;5.83;;;2.20;;
58152;SDS011;43967;51.634;5.566;2023-04-22T12:44:10;5.70;;;1.80;;
58152;SDS011;43967;51.634;5.566;2023-04-22T12:49:31;6.10;;;2.20;;
58152;SDS011;43967;51.634;5.566;2023-04-22T12:54:52;6.10;;;2.53;;
58152;SDS011;43967;51.634;5.566;2023-04-22T13:00:14;6.18;;;2.35;;
58152;SDS011;43967;51.634;5.566;2023-04-22T13:05:36;5.57;;;2.10;;
58152;SDS011;43967;51.634;5.566;2023-04-22T13:10:57;5.57;;;2.10;;
58152;SDS011;43967;51.634;5.566;2023-04-22T13:16:19;6.10;;;2.53;;
58152;SDS011;43967;51.634;5.566;2023-04-22T13:21:41;6.40;;;2.75;;
58152;SDS011;43967;51.634;5.566;2023-04-22T13:27:02;5.88;;;2.55;;
58152;SDS011;43967;51.634;5.566;2023-04-22T13:32:24;5.97;;;2.20;;
58152;SDS011;43967;51.634;5.566;2023-04-22T13:37:45;6.10;;;2.50;;
58152;SDS011;43967;51.634;5.566;2023-04-22T13:43:07;6.10;;;2.30;;
58152;SDS011;43967;51.634;5.566;2023-04-22T13:48:29;6.10;;;2.20;;
58152;SDS011;43967;51.634;5.566;2023-04-22T13:53:50;6.28;;;2.55;;
58152;SDS011;43967;51.634;5.566;2023-04-22T13:59:11;6.47;;;2.30;;
58152;SDS011;43967;51.634;5.566;2023-04-22T14:04:33;5.80;;;2.10;;
58152;SDS011;43967;51.634;5.566;2023-04-22T14:09:54;6.10;;;2.53;;
58152;SDS011;43967;51.634;5.566;2023-04-22T14:15:15;7.25;;;2.95;;
58152;SDS011;43967;51.634;5.566;2023-04-22T14:20:37;6.28;;;3.10;;
58152;SDS011;43967;51.634;5.566;2023-04-22T14:25:58;5.90;;;2.20;;
58152;SDS011;43967;51.634;5.566;2023-04-22T14:31:20;6.15;;;2.30;;
58152;SDS011;43967;51.634;5.566;2023-04-22T14:36:41;6.70;;;2.55;;
58152;SDS011;43967;51.634;5.566;2023-04-22T14:42:03;6.03;;;2.20;;
58152;SDS011;43967;51.634;5.566;2023-04-22T14:47:24;6.25;;;2.45;;
58152;SDS011;43967;51.634;5.566;2023-04-22T14:52:45;6.50;;;2.80;;
58152;SDS011;43967;51.634;5.566;2023-04-22T14:58:07;8.07;;;2.87;;
58152;SDS011;43967;51.634;5.566;2023-04-22T15:03:28;5.93;;;2.47;;
58152;SDS011;43967;51.634;5.566;2023-04-22T15:08:49;6.93;;;2.78;;
58152;SDS011;43967;51.634;5.566;2023-04-22T15:14:11;7.50;;;3.10;;
58152;SDS011;43967;51.634;5.566;2023-04-22T15:19:33;5.93;;;2.73;;
58152;SDS011;43967;51.634;5.566;2023-04-22T15:24:55;6.40;;;2.80;;
58152;SDS011;43967;51.634;5.566;2023-04-22T15:30:16;7.13;;;2.63;;
58152;SDS011;43967;51.634;5.566;2023-04-22T15:35:37;6.43;;;2.57;;
58152;SDS011;43967;51.634;5.566;2023-04-22T15:40:58;5.43;;;2.20;;
58152;SDS011;43967;51.634;5.566;2023-04-22T15:46:20;6.35;;;2.42;;
58152;SDS011;43967;51.634;5.566;2023-04-22T15:51:41;6.10;;;2.53;;
58152;SDS011;43967;51.634;5.566;2023-04-22T15:57:02;6.40;;;2.60;;
58152;SDS011;43967;51.634;5.566;2023-04-22T16:02:24;6.25;;;2.40;;
58152;SDS011;43967;51.634;5.566;2023-04-22T16:07:45;6.20;;;2.65;;
58152;SDS011;43967;51.634;5.566;2023-04-22T16:13:06;5.90;;;2.27;;
58152;SDS011;43967;51.634;5.566;2023-04-22T16:18:28;5.90;;;2.42;;
58152;SDS011;43967;51.634;5.566;2023-04-22T16:23:49;6.00;;;2.30;;
58152;SDS011;43967;51.634;5.566;2023-04-22T16:29:11;5.80;;;2.23;;
58152;SDS011;43967;51.634;5.566;2023-04-22T16:34:32;6.15;;;2.25;;
58152;SDS011;43967;51.634;5.566;2023-04-22T16:39:53;5.90;;;2.30;;
58152;SDS011;43967;51.634;5.566;2023-04-22T16:45:14;6.20;;;2.40;;
58152;SDS011;43967;51.634;5.566;2023-04-22T16:50:37;6.33;;;2.50;;
58152;SDS011;43967;51.634;5.566;2023-04-22T16:55:58;6.75;;;2.70;;
58152;SDS011;43967;51.634;5.566;2023-04-22T17:01:19;6.43;;;2.90;;
58152;SDS011;43967;51.634;5.566;2023-04-22T17:06:41;5.80;;;2.37;;
58152;SDS011;43967;51.634;5.566;2023-04-22T17:12:02;6.00;;;2.58;;
58152;SDS011;43967;51.634;5.566;2023-04-22T17:17:23;6.15;;;2.47;;
58152;SDS011;43967;51.634;5.566;2023-04-22T17:22:45;6.27;;;2.67;;
58152;SDS011;43967;51.634;5.566;2023-04-22T17:28:06;6.13;;;2.40;;
58152;SDS011;43967;51.634;5.566;2023-04-22T17:33:27;6.93;;;2.75;;
58152;SDS011;43967;51.634;5.566;2023-04-22T17:38:48;6.43;;;2.60;;
58152;SDS011;43967;51.634;5.566;2023-04-22T17:44:10;6.30;;;2.80;;
58152;SDS011;43967;51.634;5.566;2023-04-22T17:49:31;6.60;;;2.78;;
58152;SDS011;43967;51.634;5.566;2023-04-22T17:54:52;6.18;;;2.50;;
58152;SDS011;43967;51.634;5.566;2023-04-22T18:00:13;5.93;;;2.33;;
58152;SDS011;43967;51.634;5.566;2023-04-22T18:05:35;6.55;;;2.72;;
58152;SDS011;43967;51.634;5.566;2023-04-22T18:10:56;6.07;;;2.38;;
58152;SDS011;43967;51.634;5.566;2023-04-22T18:16:18;6.50;;;3.10;;
58152;SDS011;43967;51.634;5.566;2023-04-22T18:21:39;6.13;;;2.38;;
58152;SDS011;43967;51.634;5.566;2023-04-22T18:27:00;6.20;;;2.65;;
58152;SDS011;43967;51.634;5.566;2023-04-22T18:32:21;6.50;;;2.90;;
58152;SDS011;43967;51.634;5.566;2023-04-22T18:37:43;7.07;;;3.07;;
58152;SDS011;43967;51.634;5.566;2023-04-22T18:43:04;7.00;;;3.45;;
58152;SDS011;43967;51.634;5.566;2023-04-22T18:48:25;7.28;;;3.30;;
58152;SDS011;43967;51.634;5.566;2023-04-22T18:53:47;6.70;;;2.80;;
58152;SDS011;43967;51.634;5.566;2023-04-22T18:59:08;6.85;;;3.33;;
58152;SDS011;43967;51.634;5.566;2023-04-22T19:04:29;6.95;;;3.08;;
58152;SDS011;43967;51.634;5.566;2023-04-22T19:09:51;7.10;;;3.13;;
58152;SDS011;43967;51.634;5.566;2023-04-22T19:15:12;7.07;;;3.40;;
58152;SDS011;43967;51.634;5.566;2023-04-22T19:20:33;6.80;;;3.35;;
58152;SDS011;43967;51.634;5.566;2023-04-22T19:25:55;7.20;;;3.40;;
58152;SDS011;43967;51.634;5.566;2023-04-22T19:31:16;7.40;;;3.80;;
58152;SDS011;43967;51.634;5.566;2023-04-22T19:36:37;7.22;;;3.70;;
58152;SDS011;43967;51.634;5.566;2023-04-22T19:41:59;7.03;;;3.38;;
58152;SDS011;43967;51.634;5.566;2023-04-22T19:47:21;7.47;;;3.60;;
58152;SDS011;43967;51.634;5.566;2023-04-22T19:52:43;7.55;;;3.33;;
58152;SDS011;43967;51.634;5.566;2023-04-22T19:58:05;7.45;;;3.78;;
58152;SDS011;43967;51.634;5.566;2023-04-22T20:03:27;7.97;;;3.53;;
58152;SDS011;43967;51.634;5.566;2023-04-22T20:08:50;7.28;;;3.10;;
58152;SDS011;43967;51.634;5.566;2023-04-22T20:14:11;7.90;;;3.50;;
58152;SDS011;43967;51.634;5.566;2023-04-22T20:19:33;8.33;;;4.23;;
58152;SDS011;43967;51.634;5.566;2023-04-22T20:24:58;8.07;;;3.97;;
58152;SDS011;43967;51.634;5.566;2023-04-22T20:30:21;7.57;;;3.85;;
58152;SDS011;43967;51.634;5.566;2023-04-22T20:35:42;7.53;;;3.63;;
58152;SDS011;43967;51.634;5.566;2023-04-22T20:41:04;7.83;;;3.50;;
58152;SDS011;43967;51.634;5.566;2023-04-22T20:46:26;8.02;;;4.22;;
58152;SDS011;43967;51.634;5.566;2023-04-22T20:51:47;8.05;;;3.95;;
58152;SDS011;43967;51.634;5.566;2023-04-22T20:57:09;7.40;;;3.83;;
58152;SDS011;43967;51.634;5.566;2023-04-22T21:02:30;8.52;;;3.90;;
58152;SDS011;43967;51.634;5.566;2023-04-22T21:07:52;8.38;;;4.03;;
58152;SDS011;43967;51.634;5.566;2023-04-22T21:13:13;8.20;;;4.20;;
58152;SDS011;43967;51.634;5.566;2023-04-22T21:18:37;8.10;;;4.03;;
58152;SDS011;43967;51.634;5.566;2023-04-22T21:24:02;8.40;;;4.25;;
58152;SDS011;43967;51.634;5.566;2023-04-22T21:29:24;8.48;;;4.32;;
58152;SDS011;43967;51.634;5.566;2023-04-22T21:34:45;8.57;;;3.70;;
58152;SDS011;43967;51.634;5.566;2023-04-22T21:40:07;8.32;;;4.18;;
58152;SDS011;43967;51.634;5.566;2023-04-22T21:45:31;8.38;;;4.60;;
58152;SDS011;43967;51.634;5.566;2023-04-22T21:50:53;8.53;;;4.37;;
58152;SDS011;43967;51.634;5.566;2023-04-22T21:56:14;8.90;;;4.68;;
58152;SDS011;43967;51.634;5.566;2023-04-22T22:01:35;9.15;;;4.47;;
58152;SDS011;43967;51.634;5.566;2023-04-22T22:06:56;8.93;;;4.63;;
58152;SDS011;43967;51.634;5.566;2023-04-22T22:12:18;8.73;;;4.60;;
58152;SDS011;43967;51.634;5.566;2023-04-22T22:17:40;8.00;;;4.47;;
58152;SDS011;43967;51.634;5.566;2023-04-22T22:23:03;8.82;;;4.22;;
58152;SDS011;43967;51.634;5.566;2023-04-22T22:28:24;9.33;;;4.77;;
58152;SDS011;43967;51.634;5.566;2023-04-22T22:33:45;9.52;;;5.05;;
58152;SDS011;43967;51.634;5.566;2023-04-22T22:39:06;9.48;;;4.90;;
58152;SDS011;43967;51.634;5.566;2023-04-22T22:44:28;10.73;;;5.53;;
58152;SDS011;43967;51.634;5.566;2023-04-22T22:49:49;10.70;;;5.47;;
58152;SDS011;43967;51.634;5.566;2023-04-22T22:55:10;9.80;;;5.28;;
58152;SDS011;43967;51.634;5.566;2023-04-22T23:00:31;10.33;;;5.57;;
58152;SDS011;43967;51.634;5.566;2023-04-22T23:05:53;11.20;;;5.67;;
58152;SDS011;43967;51.634;5.566;2023-04-22T23:11:14;10.98;;;5.95;;
58152;SDS011;43967;51.634;5.566;2023-04-22T23:16:35;10.75;;;5.63;;
58152;SDS011;43967;51.634;5.566;2023-04-22T23:21:57;10.93;;;5.93;;
58152;SDS011;43967;51.634;5.566;2023-04-22T23:27:18;11.18;;;5.53;;
58152;SDS011;43967;51.634;5.566;2023-04-22T23:32:40;11.57;;;5.93;;
58152;SDS011;43967;51.634;5.566;2023-04-22T23:38:03;11.40;;;6.10;;
58152;SDS011;43967;51.634;5.566;2023-04-22T23:43:25;11.00;;;5.88;;
58152;SDS011;43967;51.634;5.566;2023-04-22T23:48:46;12.73;;;6.53;;
58152;SDS011;43967;51.634;5.566;2023-04-22T23:54:07;12.77;;;6.50;;
58152;SDS011;43967;51.634;5.566;2023-04-22T23:59:28;13.73;;;6.73;;
